Oasis — WDG3806 — position and weather

sailwx.info

Track history (hours):
 
Tides and Currents Weather Stations Pressure Air Temp Water Temp Dewpoint Dewpoint Depression Visibility Wind Speed Wind Dir Waves Ship Positions

Oasis

Owner: Rome, Clifford D, Boston, MA. More information available from US FCC via Universal Licensing System and Coast Guard Vessel Documentation Center.

Last reported at 2018-May-03 18:00 UTC. Time now 2018-Jun-23 00:35 UTC.
Position N 58°19' W 136°06'.
Warning: this ship's position is 50 days out of date.

Length 22 m.

Type: Pleasure craft. MMSI: 367529840.

Date/timePositionNaut miles runAvg speedWind from/ knotsBaromVisibWave heightAir tempDewpointWater temp
2018-May-03 18:00N 58°19' W 136°06'4 8.4
2018-May-03 17:28N 58°22' W 136°01'713.0
2018-May-03 16:56N 58°29' W 136°04'4 8.6
2018-May-03 16:30N 58°31' W 136°09'2 4.4
2018-May-03 15:59N 58°31' W 136°14'0 0.0
2018-May-03 15:26N 58°31' W 136°14'0 0.0
2018-May-03 14:56N 58°31' W 136°14'0 0.0
2018-May-03 14:29N 58°31' W 136°14'0 0.0
2018-May-03 13:59N 58°31' W 136°14'0 0.0
2018-May-03 13:29N 58°31' W 136°14'0 0.0
2018-May-03 12:59N 58°31' W 136°14'0 0.0
2018-May-03 12:29N 58°31' W 136°14'0 0.0
2018-May-03 11:59N 58°31' W 136°14'0 0.0
2018-May-03 11:29N 58°31' W 136°14'0 0.0
2018-May-03 10:59N 58°31' W 136°14'0 0.0
2018-May-03 10:29N 58°31' W 136°14'0 0.0
2018-May-03 09:59N 58°31' W 136°14'0 0.0
2018-May-03 09:29N 58°31' W 136°14'0 0.0
2018-May-03 08:59N 58°31' W 136°14'0 0.0
2018-May-03 08:29N 58°31' W 136°14'0 0.0
2018-May-03 07:59N 58°31' W 136°14'0 0.0
2018-May-03 07:29N 58°31' W 136°14'0 0.0
2018-May-03 06:59N 58°31' W 136°14'0 0.0
2018-May-03 06:29N 58°31' W 136°14'0 0.0
2018-May-03 05:59N 58°31' W 136°14'0 0.0
2018-May-03 05:29N 58°31' W 136°14'0 0.1
2018-May-03 04:59N 58°31' W 136°13'0 0.1
2018-May-03 04:29N 58°31' W 136°14'0 0.0
2018-May-03 03:59N 58°31' W 136°14'0 0.0
2018-May-03 03:29N 58°31' W 136°14'1 1.9
2018-May-03 03:00N 58°31' W 136°12'3 5.9
2018-May-03 02:29N 58°34' W 136°09'610.3
2018-May-03 01:57N 58°38' W 136°14'4 9.8
2018-May-03 01:30N 58°42' W 136°20'5 0.1
2018-May-01 00:04N 58°38' W 136°14'1 9.2
2018-Apr-30 23:58N 58°37' W 136°13'5 8.6
2018-Apr-30 23:25N 58°33' W 136°08'4 9.0
2018-Apr-30 23:00N 58°30' W 136°04'5 9.9
2018-Apr-30 22:30N 58°27' W 135°57'2 3.7
2018-Apr-30 21:58N 58°27' W 135°53'0 0.0
2018-Apr-30 21:28N 58°27' W 135°53'0 0.0
2018-Apr-30 20:58N 58°27' W 135°53'0 0.1
2018-Apr-30 20:28N 58°27' W 135°53'0 0.1
2018-Apr-30 20:00N 58°27' W 135°53'3 5.9
2018-Apr-30 19:30N 58°27' W 135°59'2 3.6
2018-Apr-30 19:00N 58°29' W 136°01'3 6.4
2018-Apr-30 18:30N 58°32' W 135°59'4 8.8
2018-Apr-30 18:00N 58°36' W 136°02'5 9.0
2018-Apr-30 17:27N 58°41' W 136°05'6 0.4
2018-Apr-30 02:25N 58°47' W 136°07'4 8.7
2018-Apr-30 01:58N 58°44' W 136°12'  
2018-Apr-27 17:22N 58°37' W 136°12'4 9.9
2018-Apr-27 16:58N 58°34' W 136°08'510.3
2018-Apr-27 16:30N 58°30' W 136°03'510.2
2018-Apr-27 16:01N 58°27' W 135°55'1 2.0
2018-Apr-27 15:31N 58°27' W 135°53'0 0.0
2018-Apr-27 15:01N 58°27' W 135°53'0 0.0
2018-Apr-27 14:28N 58°27' W 135°53'0 0.0
2018-Apr-27 14:01N 58°27' W 135°53'0 0.0
2018-Apr-27 13:28N 58°27' W 135°53'0 0.0
2018-Apr-27 13:01N 58°27' W 135°53'0 0.0
2018-Apr-27 12:28N 58°27' W 135°53'0 0.0
2018-Apr-27 12:01N 58°27' W 135°53'0 0.0
2018-Apr-27 11:28N 58°27' W 135°53'0 0.0
2018-Apr-27 11:01N 58°27' W 135°53'0 0.0
2018-Apr-27 10:31N 58°27' W 135°53'0 0.0
2018-Apr-27 10:01N 58°27' W 135°53'0 0.0
2018-Apr-27 09:31N 58°27' W 135°53'0 0.0
2018-Apr-27 09:01N 58°27' W 135°53'0 0.0
2018-Apr-27 08:28N 58°27' W 135°53'0 0.0
2018-Apr-27 08:01N 58°27' W 135°53'0 0.0
2018-Apr-27 07:28N 58°27' W 135°53'0 0.0
2018-Apr-27 06:58N 58°27' W 135°53'0 0.0
2018-Apr-27 06:31N 58°27' W 135°53'0 0.0
2018-Apr-27 06:01N 58°27' W 135°53'0 0.0
2018-Apr-27 05:31N 58°27' W 135°53'0 0.0
2018-Apr-27 05:01N 58°27' W 135°53'0 0.1
2018-Apr-27 04:30N 58°27' W 135°53'3 6.4
2018-Apr-27 04:01N 58°25' W 135°56'4 7.9
2018-Apr-27 03:29N 58°21' W 135°53'4 7.9
2018-Apr-27 02:55N 58°19' W 135°45'  
Track history (hours):
 
Tides and Currents Weather Stations Pressure Air Temp Water Temp Dewpoint Dewpoint Depression Visibility Wind Speed Wind Dir Waves Ship Positions

Oasis

Owner: Rome, Clifford D, Boston, MA. More information available from US FCC via Universal Licensing System and Coast Guard Vessel Documentation Center.

Last reported at 2018-May-03 18:00 UTC. Time now 2018-Jun-23 00:35 UTC.
Position N 58°19' W 136°06'.
Warning: this ship's position is 50 days out of date.

Length 22 m.

Type: Pleasure craft. MMSI: 367529840.

Date/timePositionNaut miles runAvg speedWind from/ knotsBaromVisibWave heightAir tempDewpointWater temp
2018-May-03 18:00N 58°19' W 136°06'4 8.4
2018-May-03 17:28N 58°22' W 136°01'713.0
2018-May-03 16:56N 58°29' W 136°04'4 8.6
2018-May-03 16:30N 58°31' W 136°09'2 4.4
2018-May-03 15:59N 58°31' W 136°14'0 0.0
2018-May-03 15:26N 58°31' W 136°14'0 0.0
2018-May-03 14:56N 58°31' W 136°14'0 0.0
2018-May-03 14:29N 58°31' W 136°14'0 0.0
2018-May-03 13:59N 58°31' W 136°14'0 0.0
2018-May-03 13:29N 58°31' W 136°14'0 0.0
2018-May-03 12:59N 58°31' W 136°14'0 0.0
2018-May-03 12:29N 58°31' W 136°14'0 0.0
2018-May-03 11:59N 58°31' W 136°14'0 0.0
2018-May-03 11:29N 58°31' W 136°14'0 0.0
2018-May-03 10:59N 58°31' W 136°14'0 0.0
2018-May-03 10:29N 58°31' W 136°14'0 0.0
2018-May-03 09:59N 58°31' W 136°14'0 0.0
2018-May-03 09:29N 58°31' W 136°14'0 0.0
2018-May-03 08:59N 58°31' W 136°14'0 0.0
2018-May-03 08:29N 58°31' W 136°14'0 0.0
2018-May-03 07:59N 58°31' W 136°14'0 0.0
2018-May-03 07:29N 58°31' W 136°14'0 0.0
2018-May-03 06:59N 58°31' W 136°14'0 0.0
2018-May-03 06:29N 58°31' W 136°14'0 0.0
2018-May-03 05:59N 58°31' W 136°14'0 0.0
2018-May-03 05:29N 58°31' W 136°14'0 0.1
2018-May-03 04:59N 58°31' W 136°13'0 0.1
2018-May-03 04:29N 58°31' W 136°14'0 0.0
2018-May-03 03:59N 58°31' W 136°14'0 0.0
2018-May-03 03:29N 58°31' W 136°14'1 1.9
2018-May-03 03:00N 58°31' W 136°12'3 5.9
2018-May-03 02:29N 58°34' W 136°09'610.3
2018-May-03 01:57N 58°38' W 136°14'4 9.8
2018-May-03 01:30N 58°42' W 136°20'5 0.1
2018-May-01 00:04N 58°38' W 136°14'1 9.2
2018-Apr-30 23:58N 58°37' W 136°13'5 8.6
2018-Apr-30 23:25N 58°33' W 136°08'4 9.0
2018-Apr-30 23:00N 58°30' W 136°04'5 9.9
2018-Apr-30 22:30N 58°27' W 135°57'2 3.7
2018-Apr-30 21:58N 58°27' W 135°53'0 0.0
2018-Apr-30 21:28N 58°27' W 135°53'0 0.0
2018-Apr-30 20:58N 58°27' W 135°53'0 0.1
2018-Apr-30 20:28N 58°27' W 135°53'0 0.1
2018-Apr-30 20:00N 58°27' W 135°53'3 5.9
2018-Apr-30 19:30N 58°27' W 135°59'2 3.6
2018-Apr-30 19:00N 58°29' W 136°01'3 6.4
2018-Apr-30 18:30N 58°32' W 135°59'4 8.8
2018-Apr-30 18:00N 58°36' W 136°02'5 9.0
2018-Apr-30 17:27N 58°41' W 136°05'6 0.4
2018-Apr-30 02:25N 58°47' W 136°07'4 8.7
2018-Apr-30 01:58N 58°44' W 136°12'  
2018-Apr-27 17:22N 58°37' W 136°12'4 9.9
2018-Apr-27 16:58N 58°34' W 136°08'510.3
2018-Apr-27 16:30N 58°30' W 136°03'510.2
2018-Apr-27 16:01N 58°27' W 135°55'1 2.0
2018-Apr-27 15:31N 58°27' W 135°53'0 0.0
2018-Apr-27 15:01N 58°27' W 135°53'0 0.0
2018-Apr-27 14:28N 58°27' W 135°53'0 0.0
2018-Apr-27 14:01N 58°27' W 135°53'0 0.0
2018-Apr-27 13:28N 58°27' W 135°53'0 0.0
2018-Apr-27 13:01N 58°27' W 135°53'0 0.0
2018-Apr-27 12:28N 58°27' W 135°53'0 0.0
2018-Apr-27 12:01N 58°27' W 135°53'0 0.0
2018-Apr-27 11:28N 58°27' W 135°53'0 0.0
2018-Apr-27 11:01N 58°27' W 135°53'0 0.0
2018-Apr-27 10:31N 58°27' W 135°53'0 0.0
2018-Apr-27 10:01N 58°27' W 135°53'0 0.0
2018-Apr-27 09:31N 58°27' W 135°53'0 0.0
2018-Apr-27 09:01N 58°27' W 135°53'0 0.0
2018-Apr-27 08:28N 58°27' W 135°53'0 0.0
2018-Apr-27 08:01N 58°27' W 135°53'0 0.0
2018-Apr-27 07:28N 58°27' W 135°53'0 0.0
2018-Apr-27 06:58N 58°27' W 135°53'0 0.0
2018-Apr-27 06:31N 58°27' W 135°53'0 0.0
2018-Apr-27 06:01N 58°27' W 135°53'0 0.0
2018-Apr-27 05:31N 58°27' W 135°53'0 0.0
2018-Apr-27 05:01N 58°27' W 135°53'0 0.1
2018-Apr-27 04:30N 58°27' W 135°53'3 6.4
2018-Apr-27 04:01N 58°25' W 135°56'4 7.9
2018-Apr-27 03:29N 58°21' W 135°53'4 7.9
2018-Apr-27 02:55N 58°19' W 135°45'  

Dump ship's entire track history